Time;durP1;ratioP1;P1;durP2;ratioP2;P2;SDS_P1;SDS_P2;PMS_P1;PMS_P2;Temp;Humidity;BMP_temperature;BMP_pressure;BME280_temperature;BME280_humidity;BME280_pressure;Samples;Min_cycle;Max_cycle;Signal;HPM_P1;HPM_P2
2023/01/13 00:00:51;;;;;;;37.83;5.35;;;;;;;;;;2099102;28;20024;-60
2023/01/13 00:01:51;;;;;;;37.17;5.32;;;;;;;;;;2099297;28;20088;-59
2023/01/13 00:02:51;;;;;;;45.37;4.87;;;;;;;;;;2099063;28;20017;-60
2023/01/13 00:03:51;;;;;;;28.40;3.80;;;;;;;;;;2099082;28;20241;-60
2023/01/13 00:04:51;;;;;;;29.42;4.40;;;;;;;;;;2098971;28;20285;-60
2023/01/13 00:05:52;;;;;;;29.20;4.38;;;;;;;;;;2099129;28;20371;-59
2023/01/13 00:06:52;;;;;;;42.67;5.43;;;;;;;;;;2099081;28;20032;-60
2023/01/13 00:07:52;;;;;;;37.90;4.33;;;;;;;;;;2098913;28;20028;-59
2023/01/13 00:08:52;;;;;;;48.33;5.33;;;;;;;;;;2099030;28;20684;-59
2023/01/13 00:09:52;;;;;;;46.65;5.78;;;;;;;;;;2098981;28;20585;-58
2023/01/13 00:10:52;;;;;;;34.05;5.07;;;;;;;;;;2098997;28;20028;-60
2023/01/13 00:11:53;;;;;;;41.37;4.23;;;;;;;;;;2099039;28;20058;-60
2023/01/13 00:12:54;;;;;;;38.30;5.22;;;;;;;;;;2099011;28;20289;-60
2023/01/13 00:13:54;;;;;;;38.60;4.90;;;;;;;;;;2098970;28;20459;-60
2023/01/13 00:14:54;;;;;;;34.78;4.93;;;;;;;;;;2098954;28;20174;-60
2023/01/13 00:15:58;;;;;;;37.27;4.63;;;;;;;;;;2098936;28;20025;-60
2023/01/13 00:16:59;;;;;;;32.72;4.75;;;;;;;;;;2092763;28;20246;-60
2023/01/13 00:17:59;;;;;;;38.38;5.00;;;;;;;;;;2102945;28;20024;-60
2023/01/13 00:18:59;;;;;;;33.92;4.70;;;;;;;;;;2098585;28;20091;-59
2023/01/13 00:19:59;;;;;;;34.47;4.63;;;;;;;;;;2097637;28;20013;-59
2023/01/13 00:21:03;;;;;;;27.70;3.90;;;;;;;;;;2098204;28;20021;-60
2023/01/13 00:22:05;;;;;;;45.92;5.75;;;;;;;;;;2098931;28;20108;-59
2023/01/13 00:23:05;;;;;;;33.03;4.13;;;;;;;;;;2099009;28;20052;-60
2023/01/13 00:24:05;;;;;;;35.97;4.67;;;;;;;;;;2098918;28;20024;-58
2023/01/13 00:25:05;;;;;;;38.72;4.57;;;;;;;;;;2098781;28;20241;-59
2023/01/13 00:26:07;;;;;;;35.83;5.53;;;;;;;;;;2098879;28;20074;-58
2023/01/13 00:27:07;;;;;;;32.75;5.07;;;;;;;;;;2098958;28;20028;-60
2023/01/13 00:28:08;;;;;;;27.00;4.05;;;;;;;;;;2098851;28;20037;-60
2023/01/13 00:29:09;;;;;;;24.13;4.13;;;;;;;;;;2098935;28;20024;-58
2023/01/13 00:30:09;;;;;;;36.90;5.87;;;;;;;;;;2098558;28;20046;-60
2023/01/13 00:31:11;;;;;;;37.25;5.03;;;;;;;;;;2099691;28;20298;-61
2023/01/13 00:32:11;;;;;;;27.05;4.50;;;;;;;;;;2102608;28;20020;-60
2023/01/13 00:33:11;;;;;;;38.27;5.53;;;;;;;;;;2105383;28;20062;-60
2023/01/13 00:34:11;;;;;;;48.33;5.30;;;;;;;;;;2107096;28;20255;-60
2023/01/13 00:35:11;;;;;;;36.47;5.43;;;;;;;;;;2105344;28;20123;-60
2023/01/13 00:36:13;;;;;;;34.58;4.35;;;;;;;;;;2101771;28;20024;-61
2023/01/13 00:37:13;;;;;;;36.15;3.90;;;;;;;;;;2098850;28;20380;-61
2023/01/13 00:38:13;;;;;;;36.38;4.57;;;;;;;;;;2098792;28;20025;-61
2023/01/13 00:39:14;;;;;;;36.88;4.55;;;;;;;;;;2098890;28;20021;-61
2023/01/13 00:40:14;;;;;;;39.13;4.55;;;;;;;;;;2099007;28;20459;-61
2023/01/13 00:41:15;;;;;;;31.70;4.27;;;;;;;;;;2098740;28;20032;-61
2023/01/13 00:43:35;;;;;;;33.55;4.80;;;;;;;;;;2098869;28;20456;-61
2023/01/13 00:44:35;;;;;;;48.30;5.07;;;;;;;;;;2098791;28;20064;-61
2023/01/13 00:45:36;;;;;;;41.17;5.60;;;;;;;;;;2098911;28;20029;-61
2023/01/13 00:46:37;;;;;;;34.78;4.93;;;;;;;;;;2098486;28;20791;-61
2023/01/13 00:47:37;;;;;;;34.63;5.00;;;;;;;;;;2101950;28;20026;-62
2023/01/13 00:48:37;;;;;;;41.20;5.10;;;;;;;;;;2106547;28;20020;-62
2023/01/13 00:49:37;;;;;;;33.20;4.50;;;;;;;;;;2106049;28;20328;-61
2023/01/13 00:50:38;;;;;;;42.60;4.83;;;;;;;;;;2107225;28;20043;-61
2023/01/13 00:51:38;;;;;;;37.20;4.73;;;;;;;;;;2107036;28;20237;-62
2023/01/13 00:52:38;;;;;;;36.07;4.67;;;;;;;;;;2104428;28;20273;-62
2023/01/13 00:53:39;;;;;;;31.13;4.73;;;;;;;;;;2107179;28;20237;-59
2023/01/13 00:54:39;;;;;;;44.05;5.50;;;;;;;;;;2106106;28;20334;-61
2023/01/13 00:55:39;;;;;;;38.67;5.10;;;;;;;;;;2107126;28;20375;-61
2023/01/13 00:56:39;;;;;;;46.80;6.17;;;;;;;;;;2105322;28;20260;-61
2023/01/13 00:57:40;;;;;;;35.40;6.13;;;;;;;;;;2104804;28;20252;-61
2023/01/13 00:58:40;;;;;;;34.03;5.03;;;;;;;;;;2106230;28;20451;-61
2023/01/13 00:59:40;;;;;;;41.40;6.28;;;;;;;;;;2107019;28;20055;-61
2023/01/13 01:00:41;;;;;;;42.20;6.38;;;;;;;;;;2103406;28;20027;-62
2023/01/13 01:01:41;;;;;;;37.77;5.43;;;;;;;;;;2101191;28;20035;-62
2023/01/13 01:02:41;;;;;;;31.70;4.93;;;;;;;;;;2106962;28;20298;-61
2023/01/13 01:03:41;;;;;;;36.57;5.07;;;;;;;;;;2098682;28;20104;-61
2023/01/13 01:04:41;;;;;;;41.50;5.55;;;;;;;;;;2106920;28;20249;-61
2023/01/13 01:05:42;;;;;;;47.45;5.70;;;;;;;;;;2105576;28;20023;-61
2023/01/13 01:06:42;;;;;;;31.63;5.22;;;;;;;;;;2105777;28;20463;-61
2023/01/13 01:07:42;;;;;;;32.90;4.55;;;;;;;;;;2106440;28;20024;-61
2023/01/13 01:08:42;;;;;;;31.23;4.40;;;;;;;;;;2105751;28;20008;-61
2023/01/13 01:09:42;;;;;;;29.55;4.40;;;;;;;;;;2107001;28;20277;-61
2023/01/13 01:10:43;;;;;;;35.17;5.90;;;;;;;;;;2106099;28;20046;-61
2023/01/13 01:11:43;;;;;;;34.05;4.57;;;;;;;;;;2104199;28;20054;-61
2023/01/13 01:12:43;;;;;;;30.80;4.20;;;;;;;;;;2098653;28;20021;-60
2023/01/13 01:13:43;;;;;;;37.00;6.00;;;;;;;;;;2106046;28;20371;-62
2023/01/13 01:14:44;;;;;;;37.45;4.97;;;;;;;;;;2105819;28;20280;-60
2023/01/13 01:15:44;;;;;;;27.15;4.63;;;;;;;;;;2106563;28;20052;-61
2023/01/13 01:16:44;;;;;;;42.63;5.20;;;;;;;;;;2103039;28;20043;-61
2023/01/13 01:17:44;;;;;;;43.10;5.30;;;;;;;;;;2107146;28;20447;-61
2023/01/13 01:18:45;;;;;;;35.75;4.28;;;;;;;;;;2104786;28;20017;-61
2023/01/13 01:19:45;;;;;;;36.00;5.07;;;;;;;;;;2106401;28;20020;-61
2023/01/13 01:20:45;;;;;;;33.17;5.05;;;;;;;;;;2103602;28;20481;-61
2023/01/13 01:21:46;;;;;;;32.58;4.65;;;;;;;;;;2104626;28;20028;-61
2023/01/13 01:22:46;;;;;;;32.80;4.43;;;;;;;;;;2105962;28;20116;-61
2023/01/13 01:23:46;;;;;;;50.60;5.90;;;;;;;;;;2105268;28;20485;-60
2023/01/13 01:24:46;;;;;;;31.02;4.40;;;;;;;;;;2103695;28;20414;-61
2023/01/13 01:25:46;;;;;;;37.45;5.45;;;;;;;;;;2107058;28;20031;-61
2023/01/13 01:26:46;;;;;;;36.60;4.70;;;;;;;;;;2105295;28;20016;-61
2023/01/13 01:27:46;;;;;;;34.97;4.43;;;;;;;;;;2106812;28;20297;-61
2023/01/13 01:28:47;;;;;;;37.40;5.82;;;;;;;;;;2105876;28;20711;-61
2023/01/13 01:29:47;;;;;;;37.92;5.38;;;;;;;;;;2106924;28;20024;-61
2023/01/13 01:30:47;;;;;;;34.87;4.80;;;;;;;;;;2105489;28;20022;-61
2023/01/13 01:31:47;;;;;;;33.85;4.50;;;;;;;;;;2104061;28;20735;-60
2023/01/13 01:32:48;;;;;;;45.78;6.00;;;;;;;;;;2105777;28;20028;-61
2023/01/13 01:33:48;;;;;;;43.08;5.57;;;;;;;;;;2103142;28;20039;-60
2023/01/13 01:34:49;;;;;;;40.58;5.43;;;;;;;;;;2101253;28;20032;-61
2023/01/13 01:35:49;;;;;;;39.50;5.63;;;;;;;;;;2107074;28;20056;-61
2023/01/13 01:36:49;;;;;;;41.22;6.13;;;;;;;;;;2105136;28;20142;-60
2023/01/13 01:37:50;;;;;;;47.40;5.30;;;;;;;;;;2107159;28;20069;-61
2023/01/13 01:38:50;;;;;;;47.17;4.83;;;;;;;;;;2099653;28;20335;-61
2023/01/13 01:39:50;;;;;;;36.28;5.10;;;;;;;;;;2104315;28;20257;-60
2023/01/13 01:40:50;;;;;;;44.35;5.65;;;;;;;;;;2106916;28;20048;-61
2023/01/13 01:44:55;;;;;;;44.00;5.40;;;;;;;;;;2107693;28;20402;-61
2023/01/13 01:45:55;;;;;;;33.33;4.95;;;;;;;;;;2108789;28;20022;-61
2023/01/13 01:46:56;;;;;;;47.17;5.93;;;;;;;;;;2102191;28;20443;-62
2023/01/13 01:47:58;;;;;;;43.22;6.10;;;;;;;;;;2107074;28;20161;-60
2023/01/13 01:49:01;;;;;;;43.65;5.90;;;;;;;;;;2107599;28;20024;-61
2023/01/13 01:50:02;;;;;;;50.40;6.18;;;;;;;;;;2108483;28;20090;-61
2023/01/13 01:51:03;;;;;;;52.80;6.35;;;;;;;;;;2105845;28;20366;-61
2023/01/13 01:52:07;;;;;;;39.92;5.60;;;;;;;;;;2108378;28;20028;-61
2023/01/13 01:53:11;;;;;;;43.28;5.15;;;;;;;;;;2107470;28;20016;-61
2023/01/13 01:54:14;;;;;;;54.72;6.72;;;;;;;;;;2107883;28;20028;-60
2023/01/13 01:55:16;;;;;;;44.30;6.22;;;;;;;;;;2106160;28;20032;-61
2023/01/13 01:56:17;;;;;;;45.33;5.35;;;;;;;;;;2108375;28;20035;-61
2023/01/13 01:57:21;;;;;;;40.90;6.32;;;;;;;;;;2105508;28;20052;-61
2023/01/13 01:58:27;;;;;;;41.25;5.82;;;;;;;;;;2108406;28;20459;-61
2023/01/13 01:59:28;;;;;;;44.03;5.75;;;;;;;;;;2105166;28;20478;-61
2023/01/13 02:00:29;;;;;;;53.50;6.70;;;;;;;;;;2108568;28;20024;-61
2023/01/13 02:01:29;;;;;;;45.57;6.33;;;;;;;;;;2104603;28;20055;-60
2023/01/13 02:02:29;;;;;;;48.75;6.00;;;;;;;;;;2104071;28;20688;-61
2023/01/13 02:03:30;;;;;;;48.45;5.88;;;;;;;;;;2099173;28;20024;-61
2023/01/13 02:04:32;;;;;;;51.78;6.93;;;;;;;;;;2106305;28;20031;-60
2023/01/13 02:05:35;;;;;;;48.38;6.75;;;;;;;;;;2108511;28;20095;-60
2023/01/13 02:06:36;;;;;;;55.25;8.20;;;;;;;;;;2106121;28;20016;-60
2023/01/13 02:07:37;;;;;;;50.80;7.45;;;;;;;;;;2107892;28;20405;-61
2023/01/13 02:08:39;;;;;;;45.10;5.55;;;;;;;;;;2104517;28;20027;-60
2023/01/13 02:09:39;;;;;;;47.88;6.03;;;;;;;;;;2104239;28;20071;-60
2023/01/13 02:10:40;;;;;;;36.58;5.28;;;;;;;;;;2107333;28;20024;-60
2023/01/13 02:13:01;;;;;;;50.50;6.40;;;;;;;;;;2108455;28;20024;-61
2023/01/13 02:14:01;;;;;;;51.10;6.00;;;;;;;;;;2099437;28;20063;-61
2023/01/13 02:15:03;;;;;;;54.30;6.77;;;;;;;;;;2101936;28;20036;-61
2023/01/13 02:16:03;;;;;;;45.13;4.95;;;;;;;;;;2108363;28;20311;-61
2023/01/13 02:17:22;;;;;;;54.72;5.97;;;;;;;;;;2106476;28;20050;-61
2023/01/13 02:18:37;;;;;;;51.17;6.05;;;;;;;;;;2105198;28;20023;-61
2023/01/13 02:19:59;;;;;;;54.42;5.72;;;;;;;;;;2096066;28;20452;-61
2023/01/13 02:21:11;;;;;;;50.88;6.53;;;;;;;;;;2099998;28;20026;-60
2023/01/13 02:22:20;;;;;;;45.63;5.35;;;;;;;;;;2100153;28;20052;-60
2023/01/13 02:25:01;;;;;;;47.22;5.95;;;;;;;;;;2091747;28;20033;-61
2023/01/13 02:26:07;;;;;;;36.50;4.80;;;;;;;;;;2092805;28;20025;-60
2023/01/13 02:27:16;;;;;;;43.22;6.18;;;;;;;;;;2108197;28;20024;-60
2023/01/13 02:28:29;;;;;;;47.53;5.60;;;;;;;;;;2107311;28;20415;-60
2023/01/13 02:32:33;;;;;;;53.83;6.78;;;;;;;;;;2108024;28;20455;-60
2023/01/13 02:33:40;;;;;;;49.25;6.90;;;;;;;;;;2106237;28;20024;-60
2023/01/13 02:34:44;;;;;;;43.55;5.82;;;;;;;;;;2108208;28;20363;-59
2023/01/13 02:36:03;;;;;;;44.25;5.63;;;;;;;;;;2104581;28;20020;-60
2023/01/13 02:37:06;;;;;;;60.55;8.98;;;;;;;;;;2108168;28;20028;-60
2023/01/13 02:38:07;;;;;;;44.38;6.07;;;;;;;;;;2105809;28;20030;-60
2023/01/13 02:39:16;;;;;;;45.38;5.90;;;;;;;;;;2107680;28;20035;-60
2023/01/13 02:40:21;;;;;;;53.53;5.85;;;;;;;;;;2104336;28;20024;-60
2023/01/13 02:44:09;;;;;;;48.95;7.72;;;;;;;;;;2108238;28;20410;-61
2023/01/13 02:45:12;;;;;;;36.70;5.53;;;;;;;;;;2106288;28;20020;-61
2023/01/13 02:46:19;;;;;;;40.20;5.72;;;;;;;;;;2105442;28;20016;-61
2023/01/13 02:47:24;;;;;;;49.47;5.80;;;;;;;;;;2107599;28;20020;-60
2023/01/13 02:48:26;;;;;;;39.45;5.93;;;;;;;;;;2102805;28;20020;-61
2023/01/13 02:49:32;;;;;;;44.85;6.82;;;;;;;;;;2104653;28;20504;-61
2023/01/13 02:50:40;;;;;;;47.72;6.15;;;;;;;;;;2107189;28;20070;-61
2023/01/13 02:51:43;;;;;;;38.30;5.35;;;;;;;;;;2106370;28;20016;-61
2023/01/13 02:52:45;;;;;;;42.47;5.15;;;;;;;;;;2107080;28;20077;-62
2023/01/13 02:54:05;;;;;;;45.75;7.25;;;;;;;;;;2091147;28;20528;-60
2023/01/13 02:55:07;;;;;;;33.38;5.68;;;;;;;;;;2091442;28;20052;-62
2023/01/13 02:56:08;;;;;;;44.45;5.68;;;;;;;;;;2096496;28;20107;-61
2023/01/13 02:57:09;;;;;;;36.92;4.95;;;;;;;;;;2104292;28;20372;-61
2023/01/13 02:58:11;;;;;;;35.67;4.93;;;;;;;;;;2099613;28;20013;-61
2023/01/13 02:59:12;;;;;;;35.05;4.47;;;;;;;;;;2101834;28;20024;-61
2023/01/13 03:00:13;;;;;;;39.60;5.55;;;;;;;;;;2107313;28;20472;-60
2023/01/13 03:01:13;;;;;;;44.92;5.75;;;;;;;;;;2101831;28;20028;-60
2023/01/13 03:02:17;;;;;;;44.00;5.65;;;;;;;;;;2107454;28;20024;-60
2023/01/13 03:03:17;;;;;;;38.30;6.15;;;;;;;;;;2107114;28;20118;-58
2023/01/13 03:04:36;;;;;;;36.67;5.45;;;;;;;;;;2108108;28;20020;-58
2023/01/13 03:05:36;;;;;;;30.10;4.75;;;;;;;;;;2106985;28;20066;-60
2023/01/13 03:06:47;;;;;;;33.67;4.68;;;;;;;;;;2107932;28;20016;-60
2023/01/13 03:07:52;;;;;;;43.33;5.50;;;;;;;;;;2107195;28;20361;-58
2023/01/13 03:08:58;;;;;;;42.60;5.32;;;;;;;;;;2106448;28;20051;-60
2023/01/13 03:10:07;;;;;;;39.50;5.18;;;;;;;;;;2103565;28;20016;-59
2023/01/13 03:11:09;;;;;;;32.40;4.57;;;;;;;;;;2098723;28;20035;-57
2023/01/13 03:12:16;;;;;;;38.10;5.18;;;;;;;;;;2108086;28;20448;-59
2023/01/13 03:13:35;;;;;;;42.78;5.78;;;;;;;;;;2104433;28;20383;-60
2023/01/13 03:14:40;;;;;;;39.70;6.07;;;;;;;;;;2103840;28;20050;-59
2023/01/13 03:15:52;;;;;;;45.78;5.63;;;;;;;;;;2108117;28;20054;-60
2023/01/13 03:17:15;;;;;;;41.22;5.35;;;;;;;;;;2103613;28;20039;-58
2023/01/13 03:18:23;;;;;;;37.33;6.03;;;;;;;;;;2106623;28;20559;-62
2023/01/13 03:19:36;;;;;;;44.78;6.05;;;;;;;;;;2103322;28;20050;-60
2023/01/13 03:20:38;;;;;;;39.65;6.18;;;;;;;;;;2107034;28;20024;-61
2023/01/13 03:22:00;;;;;;;54.60;5.97;;;;;;;;;;2107086;28;20020;-60
2023/01/13 03:23:23;;;;;;;39.47;5.72;;;;;;;;;;2105575;28;20077;-60
2023/01/13 03:24:41;;;;;;;48.47;6.38;;;;;;;;;;2107729;28;20097;-59
2023/01/13 03:25:48;;;;;;;46.47;6.05;;;;;;;;;;2106747;28;20074;-61
2023/01/13 03:26:51;;;;;;;49.97;6.63;;;;;;;;;;2106081;28;20020;-60
2023/01/13 03:27:56;;;;;;;41.00;7.15;;;;;;;;;;2107656;28;20069;-61
2023/01/13 03:29:04;;;;;;;44.97;5.18;;;;;;;;;;2107923;28;20020;-60
2023/01/13 03:30:21;;;;;;;51.13;7.55;;;;;;;;;;2106057;28;20149;-61
2023/01/13 03:31:24;;;;;;;48.15;6.63;;;;;;;;;;2107710;28;20024;-59
2023/01/13 03:32:33;;;;;;;50.75;6.32;;;;;;;;;;2104366;28;20016;-60
2023/01/13 03:33:38;;;;;;;43.65;6.47;;;;;;;;;;2105799;28;20012;-60
2023/01/13 03:34:44;;;;;;;41.15;5.80;;;;;;;;;;2107532;28;20075;-59
2023/01/13 03:35:47;;;;;;;44.50;6.07;;;;;;;;;;2106707;28;20073;-60
2023/01/13 03:36:49;;;;;;;43.92;6.35;;;;;;;;;;2107687;28;20093;-58
2023/01/13 03:37:52;;;;;;;38.13;5.25;;;;;;;;;;2105874;28;20416;-60
2023/01/13 03:38:54;;;;;;;41.50;5.65;;;;;;;;;;2105434;28;20419;-59
2023/01/13 03:39:57;;;;;;;41.50;6.35;;;;;;;;;;2102717;28;20130;-60
2023/01/13 03:41:00;;;;;;;48.75;6.50;;;;;;;;;;2107850;28;20031;-57
2023/01/13 03:42:03;;;;;;;49.33;6.50;;;;;;;;;;2104921;28;20023;-59
2023/01/13 03:44:30;;;;;;;48.53;6.55;;;;;;;;;;2102624;28;20024;-60
2023/01/13 03:45:31;;;;;;;45.95;6.53;;;;;;;;;;2104932;28;20031;-60
2023/01/13 03:46:36;;;;;;;40.75;5.88;;;;;;;;;;2107047;28;20020;-61
2023/01/13 03:47:36;;;;;;;40.95;5.55;;;;;;;;;;2107408;28;20020;-60
2023/01/13 03:48:37;;;;;;;45.03;6.10;;;;;;;;;;2102800;28;20448;-61
2023/01/13 03:49:46;;;;;;;54.88;6.57;;;;;;;;;;2105930;28;20012;-60
2023/01/13 03:50:49;;;;;;;39.22;5.03;;;;;;;;;;2106496;28;20028;-60
2023/01/13 03:51:52;;;;;;;44.33;6.93;;;;;;;;;;2107632;28;20021;-61
2023/01/13 03:52:58;;;;;;;49.17;6.07;;;;;;;;;;2104521;28;20081;-61
2023/01/13 03:54:01;;;;;;;44.15;6.20;;;;;;;;;;2107861;28;20028;-60
2023/01/13 03:55:11;;;;;;;49.05;6.30;;;;;;;;;;2106511;28;20032;-60
2023/01/13 03:56:16;;;;;;;46.42;5.57;;;;;;;;;;2107510;28;20051;-60
2023/01/13 03:57:18;;;;;;;39.42;5.43;;;;;;;;;;2107020;28;20020;-61
2023/01/13 03:58:27;;;;;;;50.55;6.22;;;;;;;;;;2106783;28;20107;-61
2023/01/13 03:59:30;;;;;;;42.22;6.03;;;;;;;;;;2091018;28;20095;-60
2023/01/13 04:00:34;;;;;;;51.13;6.47;;;;;;;;;;2097727;28;20031;-61
2023/01/13 04:01:40;;;;;;;41.25;6.03;;;;;;;;;;2106982;28;20031;-60
2023/01/13 04:02:54;;;;;;;43.95;6.93;;;;;;;;;;2106086;28;20219;-60
2023/01/13 04:04:06;;;;;;;55.40;7.45;;;;;;;;;;2104182;28;20034;-61
2023/01/13 04:05:08;;;;;;;45.08;5.60;;;;;;;;;;2106983;28;20024;-60
2023/01/13 04:06:22;;;;;;;49.60;6.70;;;;;;;;;;2106267;28;20099;-61
2023/01/13 04:07:29;;;;;;;41.65;5.75;;;;;;;;;;2105590;28;20064;-61
2023/01/13 04:08:29;;;;;;;56.70;6.35;;;;;;;;;;2107552;28;20016;-61
2023/01/13 04:09:30;;;;;;;44.00;5.88;;;;;;;;;;2105604;28;20044;-60
2023/01/13 04:10:32;;;;;;;45.85;6.63;;;;;;;;;;2105513;28;20085;-61
2023/01/13 04:11:41;;;;;;;46.10;6.20;;;;;;;;;;2098399;28;20040;-60
2023/01/13 04:13:00;;;;;;;48.40;6.13;;;;;;;;;;2098929;28;20023;-60
2023/01/13 04:14:02;;;;;;;46.53;5.78;;;;;;;;;;2099159;28;20482;-60
2023/01/13 04:15:02;;;;;;;62.22;7.03;;;;;;;;;;2098892;28;20079;-60
2023/01/13 04:16:04;;;;;;;52.05;6.45;;;;;;;;;;2099220;28;20090;-58
2023/01/13 04:17:04;;;;;;;38.85;5.45;;;;;;;;;;2107449;28;20015;-59
2023/01/13 04:18:12;;;;;;;44.17;6.20;;;;;;;;;;2105624;28;20027;-59
2023/01/13 04:19:12;;;;;;;36.35;5.55;;;;;;;;;;2107450;28;20031;-59
2023/01/13 04:20:13;;;;;;;44.03;5.90;;;;;;;;;;2104091;28;20455;-60
2023/01/13 04:21:13;;;;;;;39.33;6.10;;;;;;;;;;2102150;28;20073;-59
2023/01/13 04:22:13;;;;;;;57.83;7.13;;;;;;;;;;2107409;28;20058;-60
2023/01/13 04:23:14;;;;;;;39.20;5.80;;;;;;;;;;2100984;28;20264;-59
2023/01/13 04:24:14;;;;;;;40.53;6.22;;;;;;;;;;2098999;28;20244;-60
2023/01/13 04:25:14;;;;;;;44.00;5.80;;;;;;;;;;2104028;28;20028;-61
2023/01/13 04:26:14;;;;;;;42.78;6.32;;;;;;;;;;2106635;28;20261;-59
2023/01/13 04:27:14;;;;;;;45.13;5.87;;;;;;;;;;2106820;28;20048;-60
2023/01/13 04:28:15;;;;;;;43.23;6.03;;;;;;;;;;2107294;28;20696;-61
2023/01/13 04:29:15;;;;;;;39.72;5.65;;;;;;;;;;2107369;28;20245;-61
2023/01/13 04:30:15;;;;;;;53.47;7.30;;;;;;;;;;2105385;28;20107;-61
2023/01/13 04:31:16;;;;;;;54.15;7.10;;;;;;;;;;2107554;28;20026;-61
2023/01/13 04:32:16;;;;;;;48.30;6.28;;;;;;;;;;2104584;28;20103;-61
2023/01/13 04:33:17;;;;;;;46.93;6.67;;;;;;;;;;2105500;28;20024;-61
2023/01/13 04:34:17;;;;;;;39.70;5.78;;;;;;;;;;2107169;28;20245;-61
2023/01/13 04:35:17;;;;;;;47.20;6.63;;;;;;;;;;2105515;28;20036;-61
2023/01/13 04:36:18;;;;;;;40.50;5.78;;;;;;;;;;2104600;28;20040;-61
2023/01/13 04:37:18;;;;;;;43.70;6.40;;;;;;;;;;2104778;28;20026;-61
2023/01/13 04:38:19;;;;;;;55.40;6.72;;;;;;;;;;2107209;28;20032;-61
2023/01/13 04:39:19;;;;;;;43.65;6.22;;;;;;;;;;2104412;28;20008;-61
2023/01/13 04:40:20;;;;;;;49.92;6.15;;;;;;;;;;2107169;28;20028;-61
2023/01/13 04:41:20;;;;;;;50.53;6.82;;;;;;;;;;2103007;28;20023;-61
2023/01/13 04:42:20;;;;;;;39.38;6.22;;;;;;;;;;2107138;28;20056;-61
2023/01/13 04:43:20;;;;;;;48.33;6.97;;;;;;;;;;2103682;28;20487;-61
2023/01/13 04:44:20;;;;;;;46.45;5.55;;;;;;;;;;2107258;28;20631;-61
2023/01/13 04:45:21;;;;;;;43.72;6.15;;;;;;;;;;2103565;28;20012;-61
2023/01/13 04:46:21;;;;;;;48.80;7.03;;;;;;;;;;2105936;28;20559;-60
2023/01/13 04:47:21;;;;;;;45.60;5.60;;;;;;;;;;2105752;28;20099;-61
2023/01/13 04:48:21;;;;;;;35.55;5.90;;;;;;;;;;2107264;28;20241;-60
2023/01/13 04:49:21;;;;;;;43.70;6.18;;;;;;;;;;2104986;28;20493;-60
2023/01/13 04:50:22;;;;;;;32.20;5.38;;;;;;;;;;2105609;28;20035;-61
2023/01/13 04:51:22;;;;;;;49.25;7.10;;;;;;;;;;2102340;28;20020;-61
2023/01/13 04:52:22;;;;;;;34.70;5.80;;;;;;;;;;2107307;28;20434;-61
2023/01/13 04:53:22;;;;;;;45.50;6.55;;;;;;;;;;2107069;28;20244;-60
2023/01/13 04:54:22;;;;;;;42.33;6.40;;;;;;;;;;2104365;28;20020;-60
2023/01/13 04:55:23;;;;;;;45.07;6.90;;;;;;;;;;2105880;28;20368;-61
2023/01/13 04:56:23;;;;;;;48.25;5.82;;;;;;;;;;2103039;28;20285;-60
2023/01/13 04:57:24;;;;;;;50.38;6.40;;;;;;;;;;2098756;28;20020;-61
2023/01/13 04:58:25;;;;;;;51.67;6.57;;;;;;;;;;2098812;28;20337;-61
2023/01/13 04:59:25;;;;;;;34.95;6.40;;;;;;;;;;2097697;28;20031;-61
2023/01/13 05:00:25;;;;;;;58.85;7.45;;;;;;;;;;2098598;28;20074;-60
2023/01/13 05:01:25;;;;;;;34.20;5.50;;;;;;;;;;2098575;28;20379;-61
2023/01/13 05:02:25;;;;;;;50.35;6.47;;;;;;;;;;2098922;28;20268;-61
2023/01/13 05:03:25;;;;;;;41.72;6.55;;;;;;;;;;2098548;28;20020;-61
2023/01/13 05:04:25;;;;;;;49.22;7.03;;;;;;;;;;2098816;28;20021;-60
2023/01/13 05:05:27;;;;;;;41.45;6.20;;;;;;;;;;2098622;28;20020;-60
2023/01/13 05:06:27;;;;;;;34.58;5.18;;;;;;;;;;2098882;28;20459;-59
2023/01/13 05:07:27;;;;;;;38.70;5.75;;;;;;;;;;2098672;28;20023;-61
2023/01/13 05:08:27;;;;;;;40.67;7.13;;;;;;;;;;2098680;28;20460;-59
2023/01/13 05:09:27;;;;;;;49.70;5.90;;;;;;;;;;2098478;28;20051;-60
2023/01/13 05:10:27;;;;;;;41.28;5.43;;;;;;;;;;2098783;28;20360;-59
2023/01/13 05:16:59;;;;;;;44.95;6.25;;;;;;;;;;2099023;28;20028;-59
2023/01/13 05:17:59;;;;;;;51.83;5.78;;;;;;;;;;2099675;28;20027;-59
2023/01/13 05:18:59;;;;;;;44.97;7.10;;;;;;;;;;2110003;28;20024;-60
2023/01/13 05:20:00;;;;;;;43.77;4.97;;;;;;;;;;2108667;28;20036;-59
2023/01/13 05:21:00;;;;;;;34.13;5.70;;;;;;;;;;2108018;28;20256;-59
2023/01/13 05:25:57;;;;;;;41.30;5.53;;;;;;;;;;2109837;28;20098;-60
2023/01/13 05:26:57;;;;;;;45.33;5.90;;;;;;;;;;2109857;28;20027;-60
2023/01/13 05:27:58;;;;;;;46.22;4.90;;;;;;;;;;2104956;28;20013;-59
2023/01/13 05:28:58;;;;;;;50.50;6.28;;;;;;;;;;2109830;28;20469;-59
2023/01/13 05:29:58;;;;;;;46.93;7.67;;;;;;;;;;2107358;28;20356;-60
2023/01/13 05:30:58;;;;;;;47.00;5.75;;;;;;;;;;2109787;28;20252;-59
2023/01/13 05:32:01;;;;;;;53.60;7.57;;;;;;;;;;2105825;28;20035;-59
2023/01/13 05:33:01;;;;;;;50.38;7.13;;;;;;;;;;2108893;28;20467;-59
2023/01/13 05:34:01;;;;;;;41.97;5.27;;;;;;;;;;2109666;28;20026;-60
2023/01/13 05:35:01;;;;;;;47.83;5.67;;;;;;;;;;2107926;28;20289;-60
2023/01/13 05:36:02;;;;;;;49.42;6.63;;;;;;;;;;2109914;28;20718;-59
2023/01/13 05:37:04;;;;;;;47.65;6.70;;;;;;;;;;2109718;28;20020;-60
2023/01/13 05:38:04;;;;;;;44.35;6.20;;;;;;;;;;2107891;28;20020;-61
2023/01/13 05:39:04;;;;;;;45.83;6.20;;;;;;;;;;2109068;28;20028;-61
2023/01/13 05:44:02;;;;;;;45.13;6.35;;;;;;;;;;2109791;28;20028;-61
2023/01/13 05:45:02;;;;;;;61.38;7.05;;;;;;;;;;2107723;28;20036;-61
2023/01/13 05:46:06;;;;;;;57.53;8.25;;;;;;;;;;2108274;28;20028;-61
2023/01/13 05:47:06;;;;;;;44.60;6.05;;;;;;;;;;2104937;28;20017;-61
2023/01/13 05:48:07;;;;;;;55.40;7.77;;;;;;;;;;2109898;28;20032;-60
2023/01/13 05:49:07;;;;;;;36.10;5.60;;;;;;;;;;2106841;28;20297;-59
2023/01/13 05:50:08;;;;;;;39.20;5.77;;;;;;;;;;2108202;28;20256;-59
2023/01/13 05:51:09;;;;;;;46.58;5.80;;;;;;;;;;2109576;28;20734;-60
2023/01/13 05:52:09;;;;;;;51.70;6.82;;;;;;;;;;2107433;28;20517;-59
2023/01/13 05:53:09;;;;;;;46.87;5.73;;;;;;;;;;2109701;28;20016;-59
2023/01/13 05:54:09;;;;;;;50.45;7.13;;;;;;;;;;2105709;28;20347;-60
2023/01/13 05:55:10;;;;;;;38.37;6.03;;;;;;;;;;2107881;28;20068;-60
2023/01/13 05:56:10;;;;;;;48.63;6.40;;;;;;;;;;2107892;28;20261;-59
2023/01/13 05:57:10;;;;;;;38.25;5.07;;;;;;;;;;2109388;28;20023;-60
2023/01/13 05:58:12;;;;;;;40.13;6.03;;;;;;;;;;2101339;28;20099;-61
2023/01/13 05:59:12;;;;;;;51.40;6.60;;;;;;;;;;2109733;28;20012;-60
2023/01/13 06:00:13;;;;;;;51.77;6.73;;;;;;;;;;2107823;28;20056;-61
2023/01/13 06:01:13;;;;;;;53.58;6.15;;;;;;;;;;2109721;28;20245;-61
2023/01/13 06:02:13;;;;;;;49.92;6.38;;;;;;;;;;2105195;28;20017;-61
2023/01/13 06:03:14;;;;;;;44.22;5.93;;;;;;;;;;2107746;28;20024;-61
2023/01/13 06:04:15;;;;;;;36.65;4.55;;;;;;;;;;2109645;28;20451;-61
2023/01/13 06:05:15;;;;;;;43.33;5.90;;;;;;;;;;2108697;28;20077;-60
2023/01/13 06:06:15;;;;;;;43.28;5.75;;;;;;;;;;2109617;28;20024;-60
2023/01/13 06:07:15;;;;;;;48.10;5.95;;;;;;;;;;2105360;28;20078;-60
2023/01/13 06:08:17;;;;;;;53.30;7.90;;;;;;;;;;2106590;28;20028;-60
2023/01/13 06:09:19;;;;;;;42.72;5.60;;;;;;;;;;2107844;28;20287;-61
2023/01/13 06:10:19;;;;;;;58.47;6.45;;;;;;;;;;2109550;28;20486;-60
2023/01/13 06:11:20;;;;;;;37.83;5.50;;;;;;;;;;2109772;28;20039;-60
2023/01/13 06:12:20;;;;;;;32.28;4.57;;;;;;;;;;2106583;28;20284;-60
2023/01/13 06:13:20;;;;;;;42.47;5.85;;;;;;;;;;2109694;28;20448;-60
2023/01/13 06:14:20;;;;;;;32.40;5.28;;;;;;;;;;2107243;28;20031;-60
2023/01/13 06:15:21;;;;;;;33.63;5.07;;;;;;;;;;2109726;28;20060;-60
2023/01/13 06:16:21;;;;;;;36.63;4.63;;;;;;;;;;2109523;28;20293;-60
2023/01/13 06:17:21;;;;;;;41.70;5.40;;;;;;;;;;2107805;28;20176;-60
2023/01/13 06:18:22;;;;;;;47.37;5.57;;;;;;;;;;2109055;28;20282;-60
2023/01/13 06:19:23;;;;;;;40.35;5.40;;;;;;;;;;2108946;28;20264;-61
2023/01/13 06:20:23;;;;;;;37.60;4.38;;;;;;;;;;2109535;28;20455;-60
2023/01/13 06:21:23;;;;;;;42.78;6.45;;;;;;;;;;2109647;28;20055;-60
2023/01/13 06:22:31;;;;;;;40.03;5.63;;;;;;;;;;2107638;28;20093;-60
2023/01/13 06:23:33;;;;;;;42.88;5.30;;;;;;;;;;2109622;28;20233;-60
2023/01/13 06:24:34;;;;;;;31.92;6.05;;;;;;;;;;2109568;28;20012;-61
2023/01/13 06:25:46;;;;;;;35.20;4.78;;;;;;;;;;2109614;28;20050;-60
2023/01/13 06:26:46;;;;;;;43.10;5.55;;;;;;;;;;2106819;28;20433;-60
2023/01/13 06:27:47;;;;;;;39.03;4.72;;;;;;;;;;2108720;28;22270;-60
2023/01/13 06:28:48;;;;;;;37.63;5.35;;;;;;;;;;2106772;28;20391;-60
2023/01/13 06:29:49;;;;;;;46.92;5.88;;;;;;;;;;2107698;28;20077;-60
2023/01/13 06:30:51;;;;;;;35.67;5.63;;;;;;;;;;2108241;28;20016;-59
2023/01/13 06:31:51;;;;;;;45.60;5.75;;;;;;;;;;2105894;28;20465;-60
2023/01/13 06:32:54;;;;;;;39.35;5.30;;;;;;;;;;2108193;28;20020;-60
2023/01/13 06:33:57;;;;;;;37.10;5.03;;;;;;;;;;2108385;28;20028;-61
2023/01/13 06:34:59;;;;;;;36.75;5.70;;;;;;;;;;2107986;28;20028;-60
2023/01/13 06:36:02;;;;;;;41.15;6.07;;;;;;;;;;2107609;28;20020;-60
2023/01/13 06:37:02;;;;;;;38.40;5.65;;;;;;;;;;2104107;28;20023;-60